Time;durP1;ratioP1;P1;durP2;ratioP2;P2;SDS_P1;SDS_P2;PMS_P1;PMS_P2;Temp;Humidity;BMP_temperature;BMP_pressure;BME280_temperature;BME280_humidity;BME280_pressure;Samples;Min_cycle;Max_cycle;Signal;HPM_P1;HPM_P2
2021/04/30 07:32:11;;;;;;;4.55;3.75;;;9.10;98.20;;;;;;5372161;23;20048;-89
2021/04/30 07:34:38;;;;;;;7.25;4.30;;;9.30;98.00;;;;;;4940573;29;20091;-91
2021/04/30 07:37:05;;;;;;;6.97;4.05;;;9.50;97.80;;;;;;4933321;29;20094;-88
2021/04/30 07:39:33;;;;;;;6.97;3.97;;;9.60;97.70;;;;;;4930280;29;20051;-88
2021/04/30 07:42:00;;;;;;;5.30;3.60;;;9.80;97.50;;;;;;4920719;29;20110;-89
2021/04/30 07:44:28;;;;;;;5.72;3.90;;;10.00;97.30;;;;;;4927652;29;20566;-89
2021/04/30 07:46:55;;;;;;;5.75;3.83;;;10.10;97.00;;;;;;4920262;29;20047;-88
2021/04/30 07:49:21;;;;;;;7.63;4.38;;;10.30;96.90;;;;;;4916690;29;20112;-89
2021/04/30 07:51:48;;;;;;;5.50;3.55;;;10.40;96.70;;;;;;4935406;29;20071;-89
2021/04/30 07:54:14;;;;;;;6.45;4.15;;;10.60;96.50;;;;;;4919142;29;20058;-89
2021/04/30 07:56:41;;;;;;;7.05;4.03;;;10.80;96.10;;;;;;4937563;29;20048;-90
2021/04/30 07:59:07;;;;;;;4.50;3.80;;;10.90;95.80;;;;;;4918758;29;20055;-87
2021/04/30 08:01:33;;;;;;;5.25;4.22;;;11.00;95.40;;;;;;4903435;29;20080;-87
2021/04/30 08:04:00;;;;;;;6.38;4.22;;;11.20;95.20;;;;;;4919714;29;20055;-88
2021/04/30 08:06:26;;;;;;;5.15;4.10;;;11.30;94.80;;;;;;4934489;29;20108;-88
2021/04/30 08:08:53;;;;;;;4.97;4.03;;;11.40;94.30;;;;;;4916682;29;20048;-89
2021/04/30 08:11:19;;;;;;;6.05;3.95;;;11.50;93.70;;;;;;4933970;29;20058;-89
2021/04/30 08:13:46;;;;;;;4.18;3.70;;;11.60;93.00;;;;;;4935176;29;20127;-88
2021/04/30 08:16:13;;;;;;;6.90;3.90;;;11.70;92.60;;;;;;4926096;29;20044;-88
2021/04/30 08:18:39;;;;;;;5.20;3.92;;;11.80;92.20;;;;;;4919775;29;20063;-88
2021/04/30 08:21:07;;;;;;;6.90;3.70;;;11.90;92.10;;;;;;4934256;29;21157;-88
2021/04/30 08:23:34;;;;;;;5.25;3.50;;;12.00;92.00;;;;;;4915154;29;20169;-89
2021/04/30 08:26:00;;;;;;;5.15;4.32;;;12.10;91.70;;;;;;4913097;29;20066;-89
2021/04/30 08:28:27;;;;;;;4.95;3.55;;;12.10;91.70;;;;;;4914325;29;20463;-88
2021/04/30 08:30:55;;;;;;;4.95;3.70;;;12.20;91.30;;;;;;4916268;29;20059;-88
2021/04/30 08:33:26;;;;;;;4.75;4.07;;;12.30;91.40;;;;;;4918096;29;20059;-87
2021/04/30 08:35:53;;;;;;;6.90;4.03;;;12.40;91.50;;;;;;4916158;29;20059;-87
2021/04/30 08:38:20;;;;;;;6.18;3.88;;;12.50;91.10;;;;;;4916334;29;20059;-89
2021/04/30 08:40:47;;;;;;;5.63;4.40;;;12.60;90.90;;;;;;4918769;29;20062;-89
2021/04/30 08:43:18;;;;;;;;;;;12.70;90.80;;;;;;4922592;29;20115;-89
2021/04/30 08:45:45;;;;;;;5.32;3.78;;;12.70;88.70;;;;;;4941295;29;19923;-88
2021/04/30 08:48:14;;;;;;;5.18;3.42;;;12.80;90.40;;;;;;4921109;29;20047;-87
2021/04/30 08:50:41;;;;;;;5.28;3.70;;;12.90;90.40;;;;;;4914856;29;20052;-85
2021/04/30 08:53:10;;;;;;;4.72;3.78;;;13.00;90.10;;;;;;4914921;29;20111;-85
2021/04/30 08:55:36;;;;;;;5.90;4.40;;;13.10;90.00;;;;;;4899826;29;20058;-90
2021/04/30 08:58:05;;;;;;;5.18;3.60;;;13.30;89.60;;;;;;4914636;29;20062;-85
2021/04/30 09:00:32;;;;;;;4.15;3.50;;;13.40;88.70;;;;;;4933787;29;20043;-87
2021/04/30 09:02:59;;;;;;;4.75;3.47;;;13.30;86.70;;;;;;4915715;29;20058;-88
2021/04/30 09:05:28;;;;;;;4.72;3.25;;;13.30;86.10;;;;;;4931167;29;20091;-87
2021/04/30 09:07:57;;;;;;;5.15;3.33;;;13.30;83.80;;;;;;4917011;29;20127;-87
2021/04/30 09:10:26;;;;;;;4.40;3.58;;;13.20;82.80;;;;;;4916023;29;20067;-88
2021/04/30 09:13:07;;;;;;;3.58;3.28;;;13.20;84.40;;;;;;4924605;29;20055;-87
2021/04/30 09:15:35;;;;;;;6.93;3.25;;;13.30;83.90;;;;;;4932206;29;20051;-87
2021/04/30 09:18:26;;;;;;;5.47;3.65;;;13.50;84.60;;;;;;4916986;29;20040;-86
2021/04/30 09:20:55;;;;;;;3.45;2.88;;;13.60;81.00;;;;;;4915081;29;20403;-89
2021/04/30 09:23:39;;;;;;;3.78;3.00;;;13.50;80.40;;;;;;4921006;29;20403;-87
2021/04/30 09:26:25;;;;;;;5.15;3.33;;;13.40;80.30;;;;;;4915101;29;20512;-87
2021/04/30 09:29:09;;;;;;;4.88;2.90;;;13.50;80.10;;;;;;4911763;29;20098;-88
2021/04/30 09:31:41;;;;;;;6.40;3.40;;;13.60;80.10;;;;;;4913572;29;20036;-88
2021/04/30 09:34:23;;;;;;;4.47;3.25;;;13.80;81.20;;;;;;4931462;29;20058;-88
2021/04/30 09:37:12;;;;;;;6.13;3.22;;;13.90;78.60;;;;;;4915905;29;20512;-87
2021/04/30 09:39:55;;;;;;;4.20;3.05;;;14.00;79.60;;;;;;4912152;29;20051;-87
2021/04/30 09:42:24;;;;;;;3.55;2.92;;;14.20;79.70;;;;;;4913018;29;20056;-87
2021/04/30 09:44:53;;;;;;;5.38;2.53;;;14.30;79.00;;;;;;4916848;29;20052;-87
2021/04/30 09:47:38;;;;;;;4.00;2.70;;;14.40;77.50;;;;;;4906075;29;20470;-86
2021/04/30 09:50:23;;;;;;;3.40;2.83;;;14.60;76.10;;;;;;4913467;29;20054;-86
2021/04/30 09:52:54;;;;;;;3.75;3.35;;;14.70;76.60;;;;;;4929707;29;20048;-89
2021/04/30 09:55:22;;;;;;;3.38;3.03;;;14.80;76.00;;;;;;4933306;29;20085;-91
2021/04/30 09:57:50;;;;;;;4.63;3.40;;;14.70;75.10;;;;;;4933771;29;20052;-88
2021/04/30 10:00:17;;;;;;;5.43;2.90;;;14.80;75.00;;;;;;4912536;29;20511;-87
2021/04/30 10:02:45;;;;;;;4.90;3.10;;;14.70;74.00;;;;;;4927121;29;20098;-89
2021/04/30 10:05:18;;;;;;;6.97;3.25;;;14.70;74.30;;;;;;4914088;29;20055;-89
2021/04/30 10:08:16;;;;;;;5.18;3.03;;;14.70;73.80;;;;;;4915097;29;20087;-91
2021/04/30 10:10:42;;;;;;;4.78;3.05;;;14.60;73.90;;;;;;4914937;29;20043;-89
2021/04/30 10:13:09;;;;;;;4.50;3.03;;;14.50;74.00;;;;;;4916906;29;20039;-88
2021/04/30 10:15:35;;;;;;;6.07;3.25;;;14.70;75.00;;;;;;4912482;29;20048;-88
2021/04/30 10:18:06;;;;;;;2.70;2.50;;;14.80;74.10;;;;;;4916815;29;20089;-88
2021/04/30 10:20:33;;;;;;;4.00;3.40;;;14.80;71.80;;;;;;4932304;29;20503;-89
2021/04/30 10:23:02;;;;;;;6.10;3.50;;;14.90;72.70;;;;;;4917363;29;20052;-88
2021/04/30 10:25:29;;;;;;;;;;;14.60;70.30;;;;;;4914210;29;20559;-88
2021/04/30 10:27:56;;;;;;;6.60;3.75;;;14.50;71.40;;;;;;4934396;29;19923;-88
2021/04/30 10:30:43;;;;;;;4.47;3.40;;;14.60;71.60;;;;;;4912949;29;20091;-88
2021/04/30 10:33:31;;;;;;;6.38;3.30;;;14.70;71.70;;;;;;4913482;29;20055;-87
2021/04/30 10:36:16;;;;;;;5.00;3.88;;;14.80;71.50;;;;;;4906449;29;20066;-88
2021/04/30 10:38:49;;;;;;;4.00;3.60;;;15.00;70.10;;;;;;4930202;29;20439;-87
2021/04/30 10:41:31;;;;;;;4.40;3.67;;;15.00;71.40;;;;;;4915223;29;20044;-88
2021/04/30 10:44:17;;;;;;;5.05;3.80;;;15.20;72.60;;;;;;4914039;29;20059;-89
2021/04/30 10:46:46;;;;;;;4.07;3.65;;;15.40;72.00;;;;;;4914150;29;20051;-88
2021/04/30 10:49:21;;;;;;;4.63;4.22;;;15.40;69.40;;;;;;4932004;29;20511;-88
2021/04/30 10:52:15;;;;;;;5.90;4.40;;;15.20;70.20;;;;;;4916223;29;20051;-88
2021/04/30 10:54:44;;;;;;;5.38;4.65;;;15.10;68.70;;;;;;4919143;29;20059;-87
2021/04/30 10:57:13;;;;;;;5.22;4.28;;;14.80;69.60;;;;;;4918704;29;20039;-88
2021/04/30 10:59:50;;;;;;;5.78;4.00;;;14.60;70.60;;;;;;4918313;29;20151;-88
2021/04/30 11:02:35;;;;;;;5.68;4.55;;;14.20;69.40;;;;;;4906954;29;20052;-87
2021/04/30 11:05:13;;;;;;;4.90;4.00;;;14.00;70.30;;;;;;4911195;29;20131;-87
2021/04/30 11:07:46;;;;;;;5.07;4.53;;;14.00;70.40;;;;;;4931691;29;20047;-87
2021/04/30 11:10:33;;;;;;;4.85;3.90;;;14.20;72.20;;;;;;4918747;29;20075;-87
2021/04/30 11:13:16;;;;;;;5.75;3.88;;;14.50;71.90;;;;;;4933607;29;20047;-87
2021/04/30 11:15:45;;;;;;;4.75;4.18;;;14.70;71.30;;;;;;4918402;29;20048;-87
2021/04/30 11:18:23;;;;;;;5.00;4.50;;;14.90;71.90;;;;;;4918840;29;20056;-86
2021/04/30 11:21:04;;;;;;;6.80;4.22;;;15.20;70.30;;;;;;4925302;29;20052;-86
2021/04/30 11:23:42;;;;;;;8.85;4.03;;;15.30;68.40;;;;;;4918930;29;20055;-86
2021/04/30 11:26:13;;;;;;;4.47;4.07;;;15.30;70.20;;;;;;4916517;29;20075;-85
2021/04/30 11:28:40;;;;;;;4.80;4.30;;;15.30;70.20;;;;;;4930952;29;20044;-86
2021/04/30 11:31:15;;;;;;;4.72;3.95;;;15.20;69.20;;;;;;4913169;29;20047;-86
2021/04/30 11:33:43;;;;;;;6.15;4.40;;;15.00;69.60;;;;;;4931876;29;20495;-87
2021/04/30 11:36:12;;;;;;;5.32;4.30;;;14.90;69.60;;;;;;4911379;29;20051;-88
2021/04/30 11:39:17;;;;;;;4.97;4.50;;;14.60;68.50;;;;;;4915592;29;20051;-88
2021/04/30 11:41:57;;;;;;;5.05;4.25;;;14.40;68.00;;;;;;4918872;29;20131;-87
2021/04/30 11:44:24;;;;;;;8.02;3.88;;;14.10;68.60;;;;;;4917916;29;20395;-87
2021/04/30 11:46:58;;;;;;;6.55;4.47;;;14.10;68.90;;;;;;4918179;29;20052;-87
2021/04/30 11:49:25;;;;;;;6.25;4.38;;;14.40;69.70;;;;;;4917992;29;20052;-86
2021/04/30 11:51:52;;;;;;;6.85;4.47;;;14.60;68.30;;;;;;4935362;29;20047;-87
2021/04/30 11:54:20;;;;;;;5.32;4.45;;;14.70;68.60;;;;;;4915995;29;20486;-87
2021/04/30 11:57:00;;;;;;;4.78;4.13;;;14.90;69.10;;;;;;4917897;29;20092;-87
2021/04/30 11:59:28;;;;;;;4.03;3.63;;;15.30;69.00;;;;;;4913560;29;20545;-87
2021/04/30 12:01:57;;;;;;;4.35;3.80;;;15.50;68.50;;;;;;4915052;29;20047;-87
2021/04/30 12:04:37;;;;;;;4.82;4.00;;;15.70;68.00;;;;;;4907633;29;20059;-86
2021/04/30 12:07:14;;;;;;;4.20;3.80;;;15.80;66.30;;;;;;4917303;29;20059;-85
2021/04/30 12:09:48;;;;;;;5.53;3.88;;;15.80;67.50;;;;;;4930446;29;20055;-84
2021/04/30 12:12:27;;;;;;;6.75;4.53;;;15.50;73.10;;;;;;4932435;29;20060;-86
2021/04/30 12:15:03;;;;;;;5.13;4.13;;;15.00;73.40;;;;;;4917835;29;20044;-86
2021/04/30 12:17:38;;;;;;;6.13;3.95;;;14.80;72.90;;;;;;4918750;29;20044;-85
2021/04/30 12:20:10;;;;;;;4.80;3.90;;;14.60;74.90;;;;;;4930302;29;20056;-84
2021/04/30 12:23:07;;;;;;;4.57;3.80;;;14.50;75.90;;;;;;4934329;29;20051;-84
2021/04/30 12:25:36;;;;;;;4.53;3.85;;;14.30;76.80;;;;;;4883944;29;20040;-84
2021/04/30 12:28:24;;;;;;;4.35;3.95;;;14.30;76.50;;;;;;4937216;29;20059;-85
2021/04/30 12:31:09;;;;;;;5.45;4.18;;;14.40;74.80;;;;;;4914856;29;20048;-85
2021/04/30 12:33:39;;;;;;;3.97;3.45;;;14.60;75.90;;;;;;4929786;29;20051;-84
2021/04/30 12:36:07;;;;;;;4.68;3.40;;;14.80;74.90;;;;;;4918585;29;20513;-85
2021/04/30 12:38:35;;;;;;;4.40;3.42;;;14.80;73.10;;;;;;4918835;29;20099;-84
2021/04/30 12:41:26;;;;;;;4.18;3.22;;;14.90;73.00;;;;;;4918123;29;20442;-85
2021/04/30 12:43:58;;;;;;;3.58;3.05;;;15.10;70.30;;;;;;4912774;29;20044;-85
2021/04/30 12:46:27;;;;;;;5.18;2.97;;;15.10;71.40;;;;;;4915861;29;20059;-85
2021/04/30 12:48:57;;;;;;;4.30;3.30;;;15.10;70.10;;;;;;4933768;29;20047;-87
2021/04/30 12:51:26;;;;;;;3.65;3.22;;;15.10;70.90;;;;;;4931367;29;20044;-85
2021/04/30 12:53:53;;;;;;;5.22;3.60;;;15.00;69.10;;;;;;4915002;29;20070;-86
2021/04/30 12:56:52;;;;;;;4.78;3.22;;;14.90;67.30;;;;;;4929712;29;20107;-86
2021/04/30 12:59:20;;;;;;;5.35;3.58;;;14.70;69.10;;;;;;4903698;29;20056;-88
2021/04/30 13:01:52;;;;;;;3.03;2.72;;;14.40;71.40;;;;;;4914944;29;20059;-86
2021/04/30 13:04:23;;;;;;;4.43;3.28;;;14.20;71.60;;;;;;4913660;29;20420;-86
2021/04/30 13:06:52;;;;;;;4.22;3.15;;;14.10;72.80;;;;;;4913549;29;20498;-86
2021/04/30 13:09:22;;;;;;;4.35;3.35;;;14.00;73.80;;;;;;4914619;29;20221;-85
2021/04/30 13:12:10;;;;;;;4.88;3.50;;;13.90;73.80;;;;;;4932191;29;20043;-86
2021/04/30 13:14:48;;;;;;;5.85;4.25;;;13.90;75.70;;;;;;4912104;29;20451;-85
2021/04/30 13:17:29;;;;;;;6.47;4.32;;;13.80;78.50;;;;;;4911378;29;20040;-84
2021/04/30 13:20:15;;;;;;;5.03;4.22;;;13.70;78.80;;;;;;4928412;29;20536;-85
2021/04/30 13:22:42;;;;;;;5.30;4.53;;;13.50;80.50;;;;;;4919074;29;20035;-84
2021/04/30 13:25:14;;;;;;;5.32;3.88;;;13.40;80.00;;;;;;4932577;29;20052;-85
2021/04/30 13:27:48;;;;;;;6.07;4.07;;;13.30;79.00;;;;;;4910586;29;20051;-85
2021/04/30 13:30:35;;;;;;;6.25;4.10;;;13.30;79.60;;;;;;4917046;29;20063;-84
2021/04/30 13:33:19;;;;;;;5.22;3.88;;;13.20;80.00;;;;;;4914167;29;20090;-85
2021/04/30 13:35:48;;;;;;;4.53;3.78;;;13.30;80.00;;;;;;4917528;29;20044;-85
2021/04/30 13:38:25;;;;;;;5.85;4.07;;;13.40;80.90;;;;;;4916797;29;20047;-85
2021/04/30 13:40:51;;;;;;;4.25;3.85;;;13.40;79.50;;;;;;4931131;29;20059;-84
2021/04/30 13:43:36;;;;;;;4.00;3.60;;;13.40;79.40;;;;;;4913155;29;20052;-85
2021/04/30 13:46:16;;;;;;;4.35;3.63;;;13.50;79.00;;;;;;4915958;29;20048;-84
2021/04/30 13:48:44;;;;;;;4.55;3.80;;;13.40;80.10;;;;;;4915815;29;20059;-84
2021/04/30 13:51:12;;;;;;;4.53;3.75;;;13.40;78.30;;;;;;4919957;29;20044;-84
2021/04/30 13:53:39;;;;;;;4.78;3.55;;;13.30;78.90;;;;;;4915632;29;20043;-86
2021/04/30 13:56:06;;;;;;;5.20;3.92;;;13.20;77.20;;;;;;4929760;29;20044;-84
2021/04/30 13:58:32;;;;;;;4.68;3.70;;;13.30;78.60;;;;;;4915125;29;20048;-85
2021/04/30 14:01:00;;;;;;;5.40;3.28;;;13.40;78.40;;;;;;4910402;29;20059;-85
2021/04/30 14:03:29;;;;;;;3.60;3.00;;;13.50;77.60;;;;;;4904277;29;20063;-90
2021/04/30 14:05:59;;;;;;;5.22;3.33;;;13.60;77.10;;;;;;4899170;29;20047;-85
2021/04/30 14:08:47;;;;;;;3.65;3.05;;;13.60;76.40;;;;;;4889672;29;20047;-86
2021/04/30 14:11:45;;;;;;;3.47;3.17;;;13.50;75.20;;;;;;4896321;29;20051;-84
2021/04/30 14:14:37;;;;;;;3.95;3.33;;;13.50;74.80;;;;;;4914567;29;20048;-84
2021/04/30 14:17:26;;;;;;;5.72;2.90;;;13.50;74.40;;;;;;4892204;29;20043;-85
2021/04/30 14:20:27;;;;;;;4.72;3.20;;;13.60;74.80;;;;;;4806022;29;20045;-85
2021/04/30 14:23:11;;;;;;;3.22;2.92;;;13.70;73.50;;;;;;4847358;29;20111;-86
2021/04/30 14:26:13;;;;;;;4.30;3.20;;;13.80;72.40;;;;;;4910540;29;20054;-85
2021/04/30 14:28:50;;;;;;;5.68;3.35;;;13.90;72.70;;;;;;4917801;29;20127;-85
2021/04/30 14:31:20;;;;;;;4.45;3.15;;;13.90;72.30;;;;;;4932835;29;20043;-85
2021/04/30 14:33:47;;;;;;;4.00;3.08;;;14.00;73.60;;;;;;4913708;29;20494;-85
2021/04/30 14:36:24;;;;;;;4.88;3.35;;;14.10;74.60;;;;;;4883021;29;20059;-85
2021/04/30 14:39:06;;;;;;;4.63;3.75;;;14.20;74.40;;;;;;4909114;29;20052;-86
2021/04/30 14:42:14;;;;;;;5.18;3.53;;;14.20;73.80;;;;;;4854265;29;20390;-86
2021/04/30 14:45:08;;;;;;;4.03;3.00;;;14.20;73.60;;;;;;4817353;29;20057;-86
2021/04/30 14:47:53;;;;;;;;;;;;;;;;;;;;;
2021/04/30 14:50:48;;;;;;;4.95;3.25;;;14.00;72.90;;;;;;4780651;29;20043;-87
2021/04/30 14:54:02;;;;;;;3.53;3.20;;;13.90;72.80;;;;;;4784078;29;20502;-85
2021/04/30 15:00:18;;;;;;;3.70;3.33;;;13.60;73.20;;;;;;4758087;30;20054;-88
2021/04/30 15:03:31;;;;;;;6.15;3.60;;;13.60;73.00;;;;;;4711830;29;20051;-86
2021/04/30 15:06:51;;;;;;;3.58;3.10;;;13.70;73.00;;;;;;4762517;29;20062;-87
2021/04/30 15:09:45;;;;;;;;;;;;;;;;;;;;;
2021/04/30 15:12:49;;;;;;;5.15;3.08;;;13.80;73.00;;;;;;4753620;30;20070;-85
2021/04/30 15:15:38;;;;;;;6.07;3.35;;;13.80;72.50;;;;;;4750954;30;20052;-86
2021/04/30 15:21:30;;;;;;;4.32;3.63;;;13.60;74.80;;;;;;4823091;29;20057;-82
2021/04/30 15:23:57;;;;;;;7.95;3.92;;;13.70;76.30;;;;;;4827835;29;20118;-82
2021/04/30 15:26:23;;;;;;;4.57;3.40;;;13.70;76.70;;;;;;4818829;29;20098;-82
2021/04/30 15:28:49;;;;;;;4.45;3.97;;;13.70;75.70;;;;;;4840893;29;20053;-83
2021/04/30 15:31:20;;;;;;;9.98;4.47;;;13.80;76.40;;;;;;4841105;29;20069;-85
2021/04/30 15:33:50;;;;;;;5.32;4.53;;;13.80;79.10;;;;;;4862238;29;20113;-84
2021/04/30 15:36:18;;;;;;;8.20;4.63;;;13.70;80.20;;;;;;4881142;29;20054;-83
2021/04/30 15:38:44;;;;;;;5.40;4.60;;;13.70;80.90;;;;;;4907294;29;20060;-84
2021/04/30 15:41:10;;;;;;;6.25;5.00;;;13.60;80.90;;;;;;4905814;29;20523;-85
2021/04/30 15:43:37;;;;;;;7.20;4.63;;;13.70;80.50;;;;;;4915460;29;20053;-81
2021/04/30 15:46:04;;;;;;;10.50;4.40;;;13.60;79.60;;;;;;4916446;29;20056;-81
2021/04/30 15:48:30;;;;;;;6.25;4.10;;;13.70;80.10;;;;;;4914185;29;20064;-81
2021/04/30 15:50:56;;;;;;;6.78;4.35;;;13.80;80.50;;;;;;4915585;29;20404;-81
2021/04/30 15:53:23;;;;;;;5.53;4.50;;;13.90;80.00;;;;;;4907802;29;20104;-82
2021/04/30 15:55:49;;;;;;;7.13;3.90;;;13.90;79.90;;;;;;4905143;29;20519;-81
2021/04/30 15:58:16;;;;;;;5.20;4.13;;;14.10;79.50;;;;;;4914711;29;20044;-81
2021/04/30 16:00:42;;;;;;;4.75;4.22;;;14.30;77.70;;;;;;4916204;29;20048;-81
2021/04/30 16:03:08;;;;;;;6.40;4.30;;;14.30;77.80;;;;;;4908208;29;20059;-82
2021/04/30 16:05:35;;;;;;;5.00;3.95;;;14.40;77.30;;;;;;4914477;29;20511;-82
2021/04/30 16:08:02;;;;;;;4.97;4.53;;;14.40;77.20;;;;;;4913303;29;20099;-83
2021/04/30 16:10:28;;;;;;;4.63;4.13;;;14.50;76.90;;;;;;4907887;29;20567;-80
2021/04/30 16:12:55;;;;;;;5.10;4.28;;;14.60;77.70;;;;;;4908302;29;20138;-83
2021/04/30 16:15:21;;;;;;;6.18;3.90;;;14.50;78.70;;;;;;4913909;29;20088;-84
2021/04/30 16:17:48;;;;;;;7.82;4.97;;;14.40;79.10;;;;;;4908104;29;20523;-81
2021/04/30 16:20:15;;;;;;;5.78;4.63;;;14.10;80.00;;;;;;4913677;29;20055;-83
2021/04/30 16:22:42;;;;;;;7.15;4.85;;;13.90;80.40;;;;;;4908867;29;20112;-82
2021/04/30 16:25:10;;;;;;;5.63;4.88;;;13.80;81.00;;;;;;4913282;29;20103;-84
2021/04/30 16:27:37;;;;;;;5.22;4.43;;;13.50;81.00;;;;;;4915034;29;20052;-82
2021/04/30 16:30:05;;;;;;;7.80;4.35;;;13.40;83.30;;;;;;4914165;29;20507;-82
2021/04/30 16:32:32;;;;;;;5.47;4.07;;;13.30;83.30;;;;;;4906006;29;20056;-82
2021/04/30 16:34:59;;;;;;;5.90;4.90;;;13.20;83.00;;;;;;4904352;29;20104;-82
2021/04/30 16:37:26;;;;;;;6.78;4.75;;;13.00;82.30;;;;;;4904492;29;20101;-83
2021/04/30 16:39:53;;;;;;;5.27;4.00;;;12.90;83.30;;;;;;4913167;29;20415;-83
2021/04/30 16:42:20;;;;;;;6.95;4.53;;;13.00;84.00;;;;;;4912482;29;20068;-84
2021/04/30 16:44:47;;;;;;;5.88;3.83;;;13.00;83.90;;;;;;4912681;29;20048;-81
2021/04/30 16:47:14;;;;;;;7.40;4.72;;;13.20;84.60;;;;;;4906779;29;20108;-82
2021/04/30 16:49:40;;;;;;;6.38;3.92;;;13.40;84.10;;;;;;4908725;29;20143;-83
2021/04/30 16:52:07;;;;;;;10.52;4.40;;;13.60;83.20;;;;;;4911121;29;20052;-83
2021/04/30 16:54:37;;;;;;;6.80;4.53;;;13.60;82.90;;;;;;4914858;29;20099;-80
2021/04/30 16:57:05;;;;;;;5.38;4.32;;;13.60;83.00;;;;;;4907674;29;20060;-81
2021/04/30 16:59:33;;;;;;;5.03;3.95;;;13.70;82.10;;;;;;4907697;29;20052;-82
2021/04/30 17:02:00;;;;;;;4.20;3.80;;;13.70;82.10;;;;;;4909673;29;20665;-82
2021/04/30 17:04:27;;;;;;;4.55;3.97;;;13.80;83.20;;;;;;4907754;29;20096;-81
2021/04/30 17:06:56;;;;;;;4.97;4.35;;;13.90;83.30;;;;;;4914157;29;20048;-81
2021/04/30 17:09:24;;;;;;;4.78;3.35;;;14.00;82.10;;;;;;4910889;29;20064;-81
2021/04/30 17:11:52;;;;;;;4.32;3.60;;;14.00;82.00;;;;;;4909401;29;20048;-80
2021/04/30 17:14:18;;;;;;;3.78;3.20;;;14.10;81.50;;;;;;4911158;29;20519;-81
2021/04/30 17:16:45;;;;;;;4.13;3.30;;;14.20;81.80;;;;;;4910372;29;20052;-81
2021/04/30 17:19:12;;;;;;;6.43;3.15;;;14.00;79.80;;;;;;4912496;29;20503;-81
2021/04/30 17:21:40;;;;;;;4.40;3.55;;;13.90;79.30;;;;;;4928354;29;20040;-81
2021/04/30 17:24:07;;;;;;;7.75;3.33;;;13.90;79.50;;;;;;4912020;29;20503;-81
2021/04/30 17:26:34;;;;;;;5.97;3.70;;;13.90;79.90;;;;;;4912775;29;20500;-81
2021/04/30 17:29:01;;;;;;;4.70;3.90;;;13.90;80.00;;;;;;4913583;29;20063;-81
2021/04/30 17:31:27;;;;;;;5.25;3.28;;;14.00;80.20;;;;;;4910686;29;20072;-81
2021/04/30 17:33:54;;;;;;;5.18;3.55;;;13.90;79.20;;;;;;4912048;29;20131;-82
2021/04/30 17:36:20;;;;;;;3.40;3.03;;;13.80;79.60;;;;;;4914038;29;20115;-83
2021/04/30 17:38:48;;;;;;;4.55;3.63;;;13.90;79.20;;;;;;4912276;29;20542;-82
2021/04/30 17:41:15;;;;;;;5.07;3.35;;;13.90;78.80;;;;;;4930628;29;20052;-81
2021/04/30 17:43:42;;;;;;;3.78;3.42;;;13.90;77.90;;;;;;4906551;29;20471;-83
2021/04/30 17:46:08;;;;;;;3.33;3.03;;;13.90;78.60;;;;;;4909363;29;20123;-82
2021/04/30 17:48:35;;;;;;;3.35;3.05;;;14.10;78.40;;;;;;4913211;29;20048;-81
2021/04/30 17:51:02;;;;;;;3.78;2.95;;;14.30;78.30;;;;;;4929745;29;20503;-82
2021/04/30 17:53:28;;;;;;;3.80;3.10;;;14.50;78.70;;;;;;4930379;29;20044;-82
2021/04/30 17:55:55;;;;;;;4.57;3.25;;;15.00;77.90;;;;;;4907488;29;20914;-81
2021/04/30 17:58:24;;;;;;;5.22;3.70;;;15.60;77.20;;;;;;4913456;29;20063;-82
2021/04/30 18:00:52;;;;;;;4.47;3.85;;;16.00;75.10;;;;;;4911483;29;20083;-81
2021/04/30 18:03:20;;;;;;;4.80;3.50;;;16.20;74.50;;;;;;4907317;29;20048;-81
2021/04/30 18:05:46;;;;;;;4.97;3.80;;;16.30;74.20;;;;;;4909004;29;20475;-81
2021/04/30 18:08:13;;;;;;;4.22;3.60;;;16.30;73.70;;;;;;4911049;29;20047;-82
2021/04/30 18:10:41;;;;;;;3.80;3.50;;;16.40;73.30;;;;;;4916494;29;20044;-82
2021/04/30 18:13:10;;;;;;;6.05;3.95;;;16.50;72.70;;;;;;4932242;29;20059;-81
2021/04/30 18:15:37;;;;;;;5.38;3.70;;;16.30;72.80;;;;;;4915133;29;20039;-80
2021/04/30 18:18:04;;;;;;;7.18;3.97;;;15.80;73.10;;;;;;4914520;29;20110;-82
2021/04/30 18:20:32;;;;;;;7.35;4.13;;;15.40;73.90;;;;;;4915129;29;20067;-80
2021/04/30 18:22:58;;;;;;;5.63;4.30;;;15.00;74.80;;;;;;4931032;29;20396;-81
2021/04/30 18:25:25;;;;;;;4.55;4.10;;;14.70;75.80;;;;;;4914916;29;20118;-81
2021/04/30 18:27:56;;;;;;;5.25;4.00;;;14.40;76.70;;;;;;4932552;29;20051;-80
2021/04/30 18:30:22;;;;;;;4.60;4.00;;;14.10;77.50;;;;;;4914471;29;20487;-81
2021/04/30 18:32:50;;;;;;;5.07;3.92;;;13.90;78.30;;;;;;4931589;29;20050;-81
2021/04/30 18:35:17;;;;;;;5.47;4.03;;;13.80;78.60;;;;;;4931669;29;20063;-82
2021/04/30 18:37:48;;;;;;;4.43;4.03;;;13.80;78.80;;;;;;4931818;29;20047;-81
2021/04/30 18:40:17;;;;;;;5.30;4.78;;;14.00;79.20;;;;;;4913142;29;20463;-80
2021/04/30 18:42:44;;;;;;;4.10;3.70;;;14.20;78.30;;;;;;4916059;29;20397;-80
2021/04/30 18:45:12;;;;;;;4.97;4.47;;;14.10;78.30;;;;;;4910229;29;20044;-81
2021/04/30 18:47:48;;;;;;;4.20;3.80;;;14.00;78.50;;;;;;4916152;29;20075;-81
2021/04/30 18:50:15;;;;;;;5.90;4.32;;;13.80;78.90;;;;;;4928821;29;20052;-80
2021/04/30 18:52:41;;;;;;;5.13;4.32;;;13.60;79.70;;;;;;4910165;29;20107;-80
2021/04/30 18:55:11;;;;;;;5.40;4.25;;;13.40;80.40;;;;;;4931291;29;20055;-81
2021/04/30 18:57:37;;;;;;;4.45;4.00;;;13.20;81.30;;;;;;4914970;29;20471;-80
2021/04/30 19:00:06;;;;;;;6.43;5.00;;;13.00;82.00;;;;;;4931067;29;20052;-81
2021/04/30 19:02:33;;;;;;;5.68;4.28;;;12.80;82.80;;;;;;4904337;29;20052;-81
2021/04/30 19:05:01;;;;;;;5.97;4.80;;;12.60;83.50;;;;;;4904506;29;20055;-83
2021/04/30 19:07:27;;;;;;;7.75;4.55;;;12.50;84.00;;;;;;4907066;29;20434;-82
2021/04/30 19:09:54;;;;;;;5.57;4.82;;;12.20;84.60;;;;;;4920226;29;20047;-81
2021/04/30 19:12:21;;;;;;;6.93;4.97;;;12.00;85.00;;;;;;4918563;29;20075;-82
2021/04/30 19:15:05;;;;;;;5.95;5.00;;;11.70;85.80;;;;;;4911604;29;20059;-81
2021/04/30 19:17:31;;;;;;;6.60;5.18;;;11.40;86.30;;;;;;4909743;29;20119;-82
2021/04/30 19:19:58;;;;;;;6.20;5.30;;;11.30;87.10;;;;;;4925848;29;20076;-81
2021/04/30 19:22:31;;;;;;;5.80;4.35;;;11.20;87.20;;;;;;4922471;29;20064;-85
2021/04/30 19:25:01;;;;;;;5.28;4.78;;;11.10;88.00;;;;;;4907993;29;20063;-82
2021/04/30 19:27:28;;;;;;;5.57;5.03;;;11.00;88.20;;;;;;4911269;29;20075;-81
2021/04/30 19:29:55;;;;;;;7.07;5.13;;;10.90;89.00;;;;;;4909459;29;20130;-82
2021/04/30 19:32:22;;;;;;;7.35;5.25;;;10.70;89.80;;;;;;4917642;29;20070;-82
2021/04/30 19:34:51;;;;;;;9.35;5.35;;;10.60;90.10;;;;;;4922170;29;20050;-81
2021/04/30 19:37:19;;;;;;;7.45;5.07;;;10.40;90.30;;;;;;4910921;29;20062;-83
2021/04/30 19:39:46;;;;;;;7.93;5.90;;;10.30;90.70;;;;;;4923944;29;20051;-82
2021/04/30 19:42:13;;;;;;;7.03;5.97;;;10.20;90.90;;;;;;4916600;29;20130;-82
2021/04/30 19:44:39;;;;;;;7.65;6.32;;;10.10;91.10;;;;;;4907892;29;20051;-82
2021/04/30 19:47:06;;;;;;;9.50;5.88;;;10.00;91.40;;;;;;4926619;29;20040;-82
2021/04/30 19:49:32;;;;;;;8.15;6.40;;;9.90;91.50;;;;;;4924282;29;20047;-81
2021/04/30 19:51:59;;;;;;;6.55;5.70;;;9.90;91.60;;;;;;4911542;29;20042;-80
2021/04/30 19:54:26;;;;;;;10.32;6.30;;;9.90;91.90;;;;;;4931004;29;20039;-79
2021/04/30 19:56:53;;;;;;;7.15;6.35;;;9.80;92.00;;;;;;4912117;29;20044;-80
2021/04/30 19:59:19;;;;;;;6.90;6.20;;;9.70;92.10;;;;;;4925176;29;20056;-79
2021/04/30 20:01:46;;;;;;;6.90;6.20;;;9.70;92.20;;;;;;4929096;29;20052;-79
2021/04/30 20:04:13;;;;;;;7.82;6.65;;;9.70;92.40;;;;;;4933065;29;20139;-80
2021/04/30 20:06:40;;;;;;;9.57;7.95;;;9.60;92.40;;;;;;4931802;29;20051;-80
2021/04/30 20:09:07;;;;;;;8.82;7.10;;;9.60;92.50;;;;;;4930172;29;20086;-80
2021/04/30 20:11:35;;;;;;;9.02;7.30;;;9.60;92.60;;;;;;4933193;29;20095;-80
2021/04/30 20:14:02;;;;;;;9.02;7.72;;;9.50;92.90;;;;;;4915607;29;20043;-80
2021/04/30 20:16:29;;;;;;;11.25;7.40;;;9.50;92.90;;;;;;4926280;29;20039;-80
2021/04/30 20:18:55;;;;;;;9.40;7.75;;;9.50;92.90;;;;;;4932967;29;20463;-79
2021/04/30 20:21:22;;;;;;;9.50;7.90;;;9.40;93.10;;;;;;4915871;29;20056;-80
2021/04/30 20:23:49;;;;;;;10.60;8.10;;;9.40;93.40;;;;;;4931338;29;20447;-80
2021/04/30 20:26:16;;;;;;;9.68;7.43;;;9.30;93.40;;;;;;4916815;29;20055;-80
2021/04/30 20:28:43;;;;;;;10.05;8.20;;;9.30;93.70;;;;;;4930512;29;20372;-80
2021/04/30 20:31:09;;;;;;;11.27;8.63;;;9.30;93.80;;;;;;4909372;29;20522;-81
2021/04/30 20:33:37;;;;;;;9.90;8.60;;;9.20;94.00;;;;;;4925879;29;20448;-80
2021/04/30 20:36:04;;;;;;;11.48;8.45;;;9.20;94.20;;;;;;4932532;29;20066;-82
2021/04/30 20:38:31;;;;;;;9.77;8.05;;;9.20;94.30;;;;;;4929681;29;20043;-80
2021/04/30 20:40:58;;;;;;;8.85;8.05;;;9.10;94.60;;;;;;4909466;29;20060;-81
2021/04/30 20:43:25;;;;;;;11.02;8.60;;;9.10;94.50;;;;;;4912633;29;20415;-78
2021/04/30 20:45:52;;;;;;;9.32;8.10;;;9.00;94.90;;;;;;4929653;29;20127;-80
2021/04/30 20:48:20;;;;;;;9.00;8.20;;;9.00;95.10;;;;;;4922095;29;20064;-80
2021/04/30 20:50:47;;;;;;;9.65;8.18;;;9.00;95.10;;;;;;4903554;29;20818;-82
2021/04/30 20:53:15;;;;;;;9.35;8.43;;;9.00;95.20;;;;;;4909501;29;20115;-82